Time;durP1;ratioP1;P1;durP2;ratioP2;P2;SDS_P1;SDS_P2;PMS_P1;PMS_P2;Temp;Humidity;BMP_temperature;BMP_pressure;BME280_temperature;BME280_humidity;BME280_pressure;Samples;Min_cycle;Max_cycle;Signal;HPM_P1;HPM_P2
2023/12/10 00:08:34;;;;;;;81.60;36.50;;;;;;;-1.44;97.27;97715.81;437466;1260;108031;-39
2023/12/10 00:18:41;;;;;;;106.10;45.80;;;;;;;-1.54;97.16;97719.98;437647;1250;99227;-40
2023/12/10 00:28:48;;;;;;;81.30;40.60;;;;;;;-1.71;97.05;97700.88;437496;1260;110994;-40
2023/12/10 00:49:00;;;;;;;72.10;38.90;;;;;;;-1.79;96.74;97694.96;437246;1248;452170;-40
2023/12/10 00:59:06;;;;;;;98.70;43.40;;;;;;;-1.88;96.72;97682.63;437455;1251;108350;-39
2023/12/10 01:19:22;;;;;;;68.90;35.10;;;;;;;-2.13;96.60;97685.94;437585;1260;111377;-39
2023/12/10 01:29:29;;;;;;;70.70;33.00;;;;;;;-2.13;96.59;97656.48;437484;1248;107759;-39
2023/12/10 01:49:41;;;;;;;95.70;44.70;;;;;;;-1.98;96.91;97619.55;437709;1251;108787;-39
2023/12/10 01:59:49;;;;;;;100.10;46.50;;;;;;;-1.92;97.07;97610.27;437667;1250;97975;-39
2023/12/10 02:30:09;;;;;;;66.70;33.80;;;;;;;-1.75;96.84;97606.36;437506;1251;99255;-39
2023/12/10 02:50:24;;;;;;;89.80;43.50;;;;;;;-1.85;96.77;97608.49;436331;1254;97976;-39
2023/12/10 03:00:31;;;;;;;65.20;34.50;;;;;;;-1.84;96.70;97591.44;436323;1247;110851;-40
2023/12/10 03:10:38;;;;;;;59.80;31.20;;;;;;;-1.74;96.81;97583.96;436172;1254;106882;-40
2023/12/10 03:20:45;;;;;;;75.80;34.50;;;;;;;-1.66;96.71;97580.55;436225;1252;99214;-40
2023/12/10 03:30:53;;;;;;;87.90;41.80;;;;;;;-1.67;96.70;97561.27;436404;1261;108043;-42
2023/12/10 03:41:01;;;;;;;84.20;39.20;;;;;;;-1.73;96.69;97555.83;436347;1261;99206;-40
2023/12/10 03:51:08;;;;;;;55.30;28.10;;;;;;;-1.70;96.59;97564.05;436388;1248;111968;-40
2023/12/10 04:01:17;;;;;;;47.90;28.50;;;;;;;-1.62;96.54;97575.63;436514;1252;107227;-40
2023/12/10 04:11:40;;;;;;;66.80;30.40;;;;;;;-1.60;96.21;97580.87;436453;1248;98008;-40
2023/12/10 04:21:47;;;;;;;63.90;32.40;;;;;;;-1.72;96.27;97581.12;436390;1251;107495;-40
2023/12/10 04:31:54;;;;;;;60.20;28.20;;;;;;;-1.83;96.37;97595.04;436512;1248;97978;-40
2023/12/10 04:42:02;;;;;;;49.30;28.10;;;;;;;-1.75;96.45;97579.92;436423;1247;111773;-40
2023/12/10 04:52:09;;;;;;;57.50;29.10;;;;;;;-1.68;96.28;97578.55;436340;1252;106425;-40
2023/12/10 05:02:16;;;;;;;64.10;33.20;;;;;;;-1.66;96.32;97582.29;436503;1251;117831;-39
2023/12/10 05:12:23;;;;;;;51.40;26.60;;;;;;;-1.73;96.32;97595.54;436469;1261;108403;-41
2023/12/10 05:22:30;;;;;;;55.30;29.40;;;;;;;-1.65;96.04;97610.73;436397;1248;99240;-40
2023/12/10 05:32:38;;;;;;;65.10;30.90;;;;;;;-1.65;96.02;97613.26;436369;1247;111888;-39
2023/12/10 05:42:45;;;;;;;67.20;34.00;;;;;;;-1.70;96.06;97617.52;436485;1248;106728;-39
2023/12/10 05:52:53;;;;;;;47.60;25.30;;;;;;;-1.67;95.95;97631.09;436522;1247;98833;-41
2023/12/10 06:03:00;;;;;;;56.10;26.60;;;;;;;-1.56;95.92;97637.35;436345;1248;107896;-39
2023/12/10 06:13:10;;;;;;;76.60;35.80;;;;;;;-1.53;95.94;97637.95;436283;1251;99339;-40
2023/12/10 06:23:17;;;;;;;68.30;33.90;;;;;;;-1.57;95.91;97648.95;436465;1251;112158;-40
2023/12/10 06:33:24;;;;;;;57.40;30.20;;;;;;;-1.46;95.79;97665.14;436212;1247;108203;-42
2023/12/10 06:43:31;;;;;;;60.00;29.20;;;;;;;-1.34;95.73;97674.79;436503;1248;99221;-40
2023/12/10 06:53:39;;;;;;;73.40;35.60;;;;;;;-1.28;95.97;97686.70;436365;1251;111381;-41
2023/12/10 07:03:47;;;;;;;74.40;36.30;;;;;;;-1.27;95.90;97697.14;436288;1247;108617;-41
2023/12/10 07:24:00;;;;;;;49.10;25.30;;;;;;;-0.97;96.17;97707.05;436425;1251;108540;-39
2023/12/10 07:34:08;;;;;;;40.90;21.70;;;;;;;-0.77;96.51;97710.43;436283;1251;97926;-39
2023/12/10 07:44:15;;;;;;;59.10;28.70;;;;;;;-0.62;96.78;97715.27;436516;1251;110389;-40
2023/12/10 07:54:22;;;;;;;43.80;23.70;;;;;;;-0.47;97.15;97724.30;436453;1251;106687;-39
2023/12/10 08:04:29;;;;;;;31.30;19.50;;;;;;;-0.19;97.01;97727.66;436457;1251;99202;-39
2023/12/10 08:14:36;;;;;;;27.20;15.80;;;;;;;0.10;97.32;97728.92;436390;1251;108581;-38
2023/12/10 08:44:56;;;;;;;20.30;13.10;;;;;;;0.65;97.20;97731.98;436461;1247;108354;-43
2023/12/10 08:55:04;;;;;;;32.90;17.90;;;;;;;0.84;97.27;97733.20;436760;1251;99215;-40
2023/12/10 09:05:11;;;;;;;22.00;14.00;;;;;;;0.95;97.16;97739.73;436489;1248;112241;-40
2023/12/10 09:15:18;;;;;;;17.90;11.50;;;;;;;1.10;96.72;97743.62;436301;1247;107493;-39
2023/12/10 09:25:26;;;;;;;28.70;14.50;;;;;;;1.22;96.57;97740.18;436390;1253;98617;-41
2023/12/10 09:35:33;;;;;;;26.80;12.80;;;;;;;1.27;96.62;97748.06;436449;1251;108237;-38
2023/12/10 09:45:40;;;;;;;15.50;10.90;;;;;;;1.40;96.25;97754.73;436446;1251;99265;-39
2023/12/10 09:55:48;;;;;;;25.90;14.80;;;;;;;1.51;96.09;97759.28;436445;1252;110758;-39
2023/12/10 10:05:55;;;;;;;31.60;15.80;;;;;;;1.48;96.07;97755.79;436414;1252;108554;-41
2023/12/10 10:16:09;;;;;;;18.30;10.90;;;;;;;1.43;95.76;97751.47;436537;1250;99261;-40
2023/12/10 10:26:16;;;;;;;19.70;11.70;;;;;;;1.43;95.53;97748.16;436445;1248;107670;-39
2023/12/10 10:36:23;;;;;;;24.80;13.70;;;;;;;1.43;95.66;97751.11;436390;1248;99258;-39
2023/12/10 10:46:30;;;;;;;18.50;11.30;;;;;;;1.55;95.71;97750.05;436339;1251;111290;-39
2023/12/10 10:56:38;;;;;;;19.80;9.90;;;;;;;1.97;95.26;97749.72;436380;1247;108159;-41
2023/12/10 11:06:50;;;;;;;28.00;14.70;;;;;;;2.00;95.13;97754.79;436438;1251;99312;-39
2023/12/10 11:27:03;;;;;;;19.30;12.10;;;;;;;1.81;95.00;97769.27;436397;1253;107731;-40
2023/12/10 11:37:10;;;;;;;22.60;14.10;;;;;;;1.80;95.11;97775.01;436538;1251;98803;-39
2023/12/10 11:47:17;;;;;;;29.30;18.40;;;;;;;1.69;95.04;97788.59;436422;1251;108664;-40
2023/12/10 12:07:49;;;;;;;19.60;12.50;;;;;;;1.44;94.95;97803.27;436456;1251;111222;-41
2023/12/10 12:17:57;;;;;;;19.50;12.40;;;;;;;1.40;95.12;97801.53;436503;1247;107170;-39
2023/12/10 12:38:13;;;;;;;28.60;16.80;;;;;;;1.20;95.58;97819.21;436413;1251;107840;-40
2023/12/10 12:48:20;;;;;;;20.60;14.40;;;;;;;1.18;95.60;97830.09;435985;1247;575962;-40
2023/12/10 12:58:28;;;;;;;22.90;12.50;;;;;;;1.23;95.63;97829.65;436402;1253;112792;-40
2023/12/10 13:08:36;;;;;;;23.20;12.80;;;;;;;1.27;95.87;97833.76;436424;1247;107717;-40
2023/12/10 13:18:43;;;;;;;17.10;11.40;;;;;;;1.28;95.97;97840.70;436359;1248;99060;-40
2023/12/10 13:28:50;;;;;;;30.10;18.60;;;;;;;1.22;96.16;97842.10;436348;1251;108872;-41
2023/12/10 13:38:57;;;;;;;24.30;16.40;;;;;;;1.09;96.49;97846.67;436405;1251;99211;-40
2023/12/10 13:59:12;;;;;;;22.30;15.00;;;;;;;1.11;96.43;97841.44;436485;1247;107411;-40
2023/12/10 14:09:20;;;;;;;18.70;12.10;;;;;;;1.13;96.66;97853.83;436410;1247;99314;-41
2023/12/10 14:19:28;;;;;;;27.20;14.20;;;;;;;1.14;96.91;97865.74;436328;1247;108109;-39
2023/12/10 14:29:35;;;;;;;32.20;16.40;;;;;;;1.17;97.03;97876.18;436466;1251;99190;-39
2023/12/10 14:39:43;;;;;;;38.00;21.50;;;;;;;1.14;97.10;97878.52;436987;1251;110748;-39
2023/12/10 14:49:51;;;;;;;33.60;19.20;;;;;;;1.04;97.42;97886.45;436592;1251;107104;-40
2023/12/10 14:59:58;;;;;;;33.60;18.40;;;;;;;1.07;97.28;97887.91;436480;1247;99205;-40
2023/12/10 15:10:07;;;;;;;33.90;20.10;;;;;;;1.03;97.45;97889.92;436481;1247;110955;-39
2023/12/10 15:20:16;;;;;;;31.70;17.90;;;;;;;1.03;97.62;97904.64;436389;1251;108166;-40
2023/12/10 15:30:23;;;;;;;37.80;22.00;;;;;;;1.06;97.70;97912.95;436390;1251;98817;-39
2023/12/10 15:40:34;;;;;;;66.60;33.00;;;;;;;1.06;97.84;97914.70;436333;1251;108030;-40
2023/12/10 15:50:41;;;;;;;63.20;32.30;;;;;;;0.96;97.83;97928.27;436494;1251;99228;-39
2023/12/10 16:10:56;;;;;;;49.50;24.30;;;;;;;1.10;98.07;97938.50;436414;1247;107369;-40
2023/12/10 16:21:04;;;;;;;40.10;23.70;;;;;;;1.19;98.29;97932.86;436440;1247;99234;-39
2023/12/10 16:31:10;;;;;;;53.10;28.00;;;;;;;1.29;98.29;97938.90;436400;1247;108781;-39
2023/12/10 16:41:18;;;;;;;36.50;21.20;;;;;;;1.33;98.48;97952.41;436351;1251;99256;-38
2023/12/10 17:01:30;;;;;;;61.80;30.90;;;;;;;1.18;98.60;97952.47;436567;1251;108439;-44
2023/12/10 17:32:06;;;;;;;56.70;31.20;;;;;;;1.36;98.78;97954.61;436352;1247;106573;-38
2023/12/10 17:42:14;;;;;;;76.50;37.50;;;;;;;1.39;98.95;97964.79;436394;1247;99307;-40
2023/12/10 17:52:20;;;;;;;40.00;23.40;;;;;;;1.45;99.02;97957.23;436477;1251;108615;-38
2023/12/10 18:12:35;;;;;;;48.40;25.60;;;;;;;1.38;99.43;97949.11;436393;1253;112119;-38
2023/12/10 18:22:42;;;;;;;46.90;23.20;;;;;;;1.45;99.23;97937.00;436569;1247;108090;-38
2023/12/10 18:32:49;;;;;;;44.90;23.40;;;;;;;1.51;99.36;97938.02;436308;1253;99221;-39
2023/12/10 18:53:03;;;;;;;38.50;19.60;;;;;;;1.61;99.56;97919.08;436476;1247;107701;-39
2023/12/10 19:03:11;;;;;;;40.10;19.10;;;;;;;1.60;99.58;97921.15;436285;1253;99285;-39
2023/12/10 19:13:18;;;;;;;51.30;25.80;;;;;;;1.54;99.70;97926.36;436396;1248;108047;-38
2023/12/10 19:23:26;;;;;;;46.30;23.00;;;;;;;1.43;99.83;97929.92;436381;1253;99163;-39
2023/12/10 19:43:39;;;;;;;41.60;20.10;;;;;;;1.48;99.77;97920.44;436351;1261;107437;-40
2023/12/10 19:53:47;;;;;;;42.20;20.90;;;;;;;1.48;99.89;97916.27;436391;1251;99266;-39
2023/12/10 20:03:55;;;;;;;46.30;24.70;;;;;;;1.48;99.95;97915.95;436357;1253;108131;-39
2023/12/10 20:14:03;;;;;;;40.80;23.80;;;;;;;1.47;100.00;97907.89;436361;1247;99342;-38
2023/12/10 20:24:08;;;;;;;52.70;25.70;;;;;;;1.47;100.00;97900.63;436279;1253;111835;-38
2023/12/10 20:34:33;;;;;;;48.70;27.10;;;;;;;1.49;100.00;97900.72;436780;1247;108098;-39
2023/12/10 20:44:41;;;;;;;64.60;30.10;;;;;;;1.45;100.00;97901.90;436603;1257;99218;-39
2023/12/10 20:54:48;;;;;;;41.40;22.80;;;;;;;1.48;100.00;97889.52;436362;1254;108254;-38
2023/12/10 21:04:55;;;;;;;38.30;21.70;;;;;;;1.54;100.00;97881.63;436198;1261;98004;-38
2023/12/10 21:15:03;;;;;;;42.60;21.30;;;;;;;1.60;100.00;97868.11;436700;1251;111028;-39
2023/12/10 21:25:11;;;;;;;37.80;19.40;;;;;;;1.62;100.00;97838.86;437895;1253;107134;-38
2023/12/10 21:35:19;;;;;;;41.70;22.50;;;;;;;1.62;100.00;97817.45;439094;1253;98043;-39
2023/12/10 21:45:26;;;;;;;48.30;23.50;;;;;;;1.63;100.00;97816.01;438628;1251;108357;-39
2023/12/10 21:55:33;;;;;;;46.40;22.50;;;;;;;1.65;100.00;97805.44;437705;1254;99304;-39
2023/12/10 22:05:41;;;;;;;55.30;27.50;;;;;;;1.61;100.00;97782.37;436443;1253;111683;-39
2023/12/10 22:15:47;;;;;;;44.00;21.70;;;;;;;1.56;100.00;97769.80;436287;1248;108007;-38
2023/12/10 22:46:06;;;;;;;36.10;18.20;;;;;;;1.77;100.00;97757.84;436324;1253;97982;-40
2023/12/10 22:56:13;;;;;;;31.40;16.40;;;;;;;1.90;100.00;97753.15;436396;1256;111826;-40
2023/12/10 23:06:18;;;;;;;43.70;20.30;;;;;;;1.92;100.00;97748.83;436333;1255;108301;-39
2023/12/10 23:16:26;;;;;;;34.20;15.50;;;;;;;1.88;100.00;97748.65;436404;1249;99208;-41
2023/12/10 23:26:34;;;;;;;38.30;16.90;;;;;;;1.97;100.00;97752.92;436326;1248;107608;-38
2023/12/10 23:36:41;;;;;;;25.60;16.60;;;;;;;2.03;100.00;97739.23;436388;1261;99246;-38
2023/12/10 23:46:48;;;;;;;32.40;16.50;;;;;;;2.08;100.00;97718.29;436298;1251;111226;-40
2023/12/10 23:56:56;;;;;;;31.40;15.70;;;;;;;2.10;100.00;97709.83;436018;1253;108404;-38
